Kitty C — 2EIQ6 — position and weather

sailwx.info

Track history (hours):
 
Tides and Currents Weather Stations Pressure Air Temp Water Temp Dewpoint Dewpoint Depression Visibility Wind Speed Wind Dir Waves Ship Positions

Kitty C

Last reported at 2017-Oct-15 19:41 UTC. Time now 2017-Oct-18 00:21 UTC.
Position N 39°17' W 011°30'.

Length 106 m; draft 6.3 m.

Type: Cargo ship. MMSI: 235085464.

Date/timePositionNaut miles runAvg speedWind from/ knotsBaromVisibWave heightAir tempDewpointWater temp
2017-Oct-15 19:41N 39°17' W 011°30'1 7.4
2017-Oct-15 19:30N 39°18' W 011°29'4 7.3
2017-Oct-15 19:00N 39°22' W 011°28'4 7.2
2017-Oct-15 18:30N 39°25' W 011°27'4 6.9
2017-Oct-15 17:58N 39°29' W 011°26'3 6.8
2017-Oct-15 17:31N 39°32' W 011°25'3 6.9
2017-Oct-15 17:01N 39°35' W 011°24'3 6.9
2017-Oct-15 16:31N 39°38' W 011°22'3 6.9
2017-Oct-15 16:00N 39°42' W 011°21'3 6.7
2017-Oct-15 15:30N 39°45' W 011°20'3 6.5
2017-Oct-15 15:00N 39°48' W 011°19'7 6.9
2017-Oct-15 13:58N 39°55' W 011°16'327 7.6
2017-Oct-13 18:55N 43°42' W 006°00'5 9.6
2017-Oct-13 18:24N 43°42' W 005°54'4 9.1
2017-Oct-13 18:00N 43°41' W 005°49'5 9.3
2017-Oct-13 17:30N 43°39' W 005°43'5 8.9
2017-Oct-13 16:59N 43°35' W 005°40'1 3.0
2017-Oct-13 16:30N 43°34' W 005°42'0 0.0
2017-Oct-13 16:00N 43°34' W 005°42'0 0.0
2017-Oct-13 15:28N 43°34' W 005°42'0 0.0
2017-Oct-13 14:52N 43°34' W 005°42'0 0.0
2017-Oct-13 14:28N 43°34' W 005°42'0 0.0
2017-Oct-13 13:58N 43°34' W 005°42'0 0.0
2017-Oct-13 13:24N 43°34' W 005°42'0 0.0
2017-Oct-13 12:54N 43°34' W 005°42'0 0.0
2017-Oct-13 12:30N 43°34' W 005°42'0 0.0
2017-Oct-13 12:00N 43°34' W 005°42'0 0.0
2017-Oct-13 11:12N 43°34' W 005°42'0 0.0
2017-Oct-13 09:32N 43°34' W 005°42'0 0.0
2017-Oct-13 09:26N 43°34' W 005°42'0 0.0
2017-Oct-13 08:38N 43°34' W 005°42'0 0.0
2017-Oct-13 08:08N 43°34' W 005°42'0 0.0
2017-Oct-13 07:50N 43°34' W 005°42'0 0.0
2017-Oct-13 07:26N 43°34' W 005°42'0 0.0
2017-Oct-13 06:50N 43°34' W 005°42'0 0.0
2017-Oct-13 06:20N 43°34' W 005°42'0 0.0
2017-Oct-13 05:50N 43°34' W 005°42'0 0.0
2017-Oct-13 05:26N 43°34' W 005°42'0 0.0
2017-Oct-13 04:56N 43°34' W 005°42'0 0.0
2017-Oct-13 04:26N 43°34' W 005°42'0 0.0
2017-Oct-13 03:56N 43°34' W 005°42'0 0.0
2017-Oct-13 03:26N 43°34' W 005°42'0 0.0
2017-Oct-13 02:50N 43°34' W 005°42'0 0.0
2017-Oct-13 02:26N 43°34' W 005°42'0 0.0
2017-Oct-13 01:56N 43°34' W 005°42'0 0.0
2017-Oct-13 01:26N 43°34' W 005°42'0 0.0
2017-Oct-13 00:56N 43°34' W 005°42'0 0.0
2017-Oct-13 00:26N 43°34' W 005°42'0 0.0
2017-Oct-12 23:56N 43°34' W 005°42'0 0.0
2017-Oct-12 23:26N 43°34' W 005°42'0 0.0
2017-Oct-12 19:56N 43°34' W 005°42'0 0.0
2017-Oct-12 19:26N 43°34' W 005°42'0 0.0
2017-Oct-12 18:56N 43°34' W 005°42'0 0.0
2017-Oct-12 18:26N 43°34' W 005°42'0 0.0
2017-Oct-12 17:56N 43°34' W 005°42'0 0.0
2017-Oct-12 17:26N 43°34' W 005°42'0 0.0
2017-Oct-12 13:44N 43°34' W 005°42'0 0.0
2017-Oct-12 13:26N 43°34' W 005°42'0 0.0
2017-Oct-12 12:56N 43°34' W 005°42'0 0.0
2017-Oct-12 12:26N 43°34' W 005°42'0 0.0
2017-Oct-12 11:50N 43°34' W 005°42'0 0.0
2017-Oct-12 11:26N 43°34' W 005°42'0 0.0
2017-Oct-12 05:26N 43°34' W 005°42'0 0.0
2017-Oct-12 03:38N 43°34' W 005°42'0 0.0
2017-Oct-12 03:26N 43°34' W 005°42'0 0.0
2017-Oct-12 02:44N 43°34' W 005°42'0 0.0
2017-Oct-12 02:26N 43°34' W 005°42'0 0.0
2017-Oct-12 01:56N 43°34' W 005°42'0 0.0
2017-Oct-12 01:20N 43°34' W 005°42'0 0.0
2017-Oct-12 00:32N 43°34' W 005°42'0 0.0
2017-Oct-12 00:20N 43°34' W 005°42'0 0.0
2017-Oct-11 23:56N 43°34' W 005°42'0 0.0
2017-Oct-11 20:08N 43°34' W 005°42'0 0.0
2017-Oct-11 19:50N 43°34' W 005°42'0 0.0
2017-Oct-10 23:56N 43°34' W 005°42'0 0.0
2017-Oct-10 23:30N 43°34' W 005°42'0 0.0
2017-Oct-10 23:00N 43°34' W 005°42'0 0.1
2017-Oct-10 22:30N 43°34' W 005°42'2 4.0
2017-Oct-10 22:00N 43°35' W 005°40'510.0
2017-Oct-10 21:30N 43°40' W 005°39'510.9
2017-Oct-10 21:01N 43°45' W 005°37'4 7.1
2017-Oct-10 20:31N 43°49' W 005°36'510.0
2017-Oct-10 20:00N 43°46' W 005°41'510.0
2017-Oct-10 19:31N 43°45' W 005°48'5 9.8
2017-Oct-10 19:01N 43°42' W 005°54'510.6
2017-Oct-10 18:31N 43°38' W 005°57'  
2017-Oct-07 16:58N 43°35' W 005°55'3 6.7
2017-Oct-07 16:31N 43°36' W 005°59'4 8.0
2017-Oct-07 16:01N 43°38' W 006°05'4 8.5
2017-Oct-07 15:31N 43°39' W 006°10'4 7.9
2017-Oct-07 15:01N 43°39' W 006°16'4 7.7
2017-Oct-07 14:30N 43°40' W 006°21'4 7.6
2017-Oct-07 14:01N 43°41' W 006°26'4 7.7
2017-Oct-07 13:31N 43°42' W 006°31'4 7.6
2017-Oct-07 13:01N 43°42' W 006°36'4 7.6
2017-Oct-07 12:30N 43°43' W 006°42'4 7.4
2017-Oct-07 12:01N 43°44' W 006°47'4 7.4
2017-Oct-07 11:31N 43°45' W 006°52'4 7.9
2017-Oct-07 11:00N 43°46' W 006°57'5 8.0
2017-Oct-07 10:24N 43°47' W 007°04'3 7.8
2017-Oct-07 09:59N 43°47' W 007°08'4 7.6
2017-Oct-07 09:29N 43°48' W 007°13'4 7.3
2017-Oct-07 08:54N 43°49' W 007°19'15 7.1
2017-Oct-07 06:44N 43°52' W 007°40'7 6.6
2017-Oct-07 05:41N 43°54' W 007°49'41 6.8
2017-Oct-06 23:42N 43°38' W 008°42'5 6.2
2017-Oct-06 22:54N 43°36' W 008°48'6 5.9
2017-Oct-06 21:58N 43°34' W 008°55'12 5.8
2017-Oct-06 19:56N 43°29' W 009°10'2 5.5
2017-Oct-06 19:30N 43°29' W 009°13'3 5.4
2017-Oct-06 18:54N 43°27' W 009°17'  
Track history (hours):
 
Tides and Currents Weather Stations Pressure Air Temp Water Temp Dewpoint Dewpoint Depression Visibility Wind Speed Wind Dir Waves Ship Positions

Kitty C

Last reported at 2017-Oct-15 19:41 UTC. Time now 2017-Oct-18 00:21 UTC.
Position N 39°17' W 011°30'.

Length 106 m; draft 6.3 m.

Type: Cargo ship. MMSI: 235085464.

Date/timePositionNaut miles runAvg speedWind from/ knotsBaromVisibWave heightAir tempDewpointWater temp
2017-Oct-15 19:41N 39°17' W 011°30'1 7.4
2017-Oct-15 19:30N 39°18' W 011°29'4 7.3
2017-Oct-15 19:00N 39°22' W 011°28'4 7.2
2017-Oct-15 18:30N 39°25' W 011°27'4 6.9
2017-Oct-15 17:58N 39°29' W 011°26'3 6.8
2017-Oct-15 17:31N 39°32' W 011°25'3 6.9
2017-Oct-15 17:01N 39°35' W 011°24'3 6.9
2017-Oct-15 16:31N 39°38' W 011°22'3 6.9
2017-Oct-15 16:00N 39°42' W 011°21'3 6.7
2017-Oct-15 15:30N 39°45' W 011°20'3 6.5
2017-Oct-15 15:00N 39°48' W 011°19'7 6.9
2017-Oct-15 13:58N 39°55' W 011°16'327 7.6
2017-Oct-13 18:55N 43°42' W 006°00'5 9.6
2017-Oct-13 18:24N 43°42' W 005°54'4 9.1
2017-Oct-13 18:00N 43°41' W 005°49'5 9.3
2017-Oct-13 17:30N 43°39' W 005°43'5 8.9
2017-Oct-13 16:59N 43°35' W 005°40'1 3.0
2017-Oct-13 16:30N 43°34' W 005°42'0 0.0
2017-Oct-13 16:00N 43°34' W 005°42'0 0.0
2017-Oct-13 15:28N 43°34' W 005°42'0 0.0
2017-Oct-13 14:52N 43°34' W 005°42'0 0.0
2017-Oct-13 14:28N 43°34' W 005°42'0 0.0
2017-Oct-13 13:58N 43°34' W 005°42'0 0.0
2017-Oct-13 13:24N 43°34' W 005°42'0 0.0
2017-Oct-13 12:54N 43°34' W 005°42'0 0.0
2017-Oct-13 12:30N 43°34' W 005°42'0 0.0
2017-Oct-13 12:00N 43°34' W 005°42'0 0.0
2017-Oct-13 11:12N 43°34' W 005°42'0 0.0
2017-Oct-13 09:32N 43°34' W 005°42'0 0.0
2017-Oct-13 09:26N 43°34' W 005°42'0 0.0
2017-Oct-13 08:38N 43°34' W 005°42'0 0.0
2017-Oct-13 08:08N 43°34' W 005°42'0 0.0
2017-Oct-13 07:50N 43°34' W 005°42'0 0.0
2017-Oct-13 07:26N 43°34' W 005°42'0 0.0
2017-Oct-13 06:50N 43°34' W 005°42'0 0.0
2017-Oct-13 06:20N 43°34' W 005°42'0 0.0
2017-Oct-13 05:50N 43°34' W 005°42'0 0.0
2017-Oct-13 05:26N 43°34' W 005°42'0 0.0
2017-Oct-13 04:56N 43°34' W 005°42'0 0.0
2017-Oct-13 04:26N 43°34' W 005°42'0 0.0
2017-Oct-13 03:56N 43°34' W 005°42'0 0.0
2017-Oct-13 03:26N 43°34' W 005°42'0 0.0
2017-Oct-13 02:50N 43°34' W 005°42'0 0.0
2017-Oct-13 02:26N 43°34' W 005°42'0 0.0
2017-Oct-13 01:56N 43°34' W 005°42'0 0.0
2017-Oct-13 01:26N 43°34' W 005°42'0 0.0
2017-Oct-13 00:56N 43°34' W 005°42'0 0.0
2017-Oct-13 00:26N 43°34' W 005°42'0 0.0
2017-Oct-12 23:56N 43°34' W 005°42'0 0.0
2017-Oct-12 23:26N 43°34' W 005°42'0 0.0
2017-Oct-12 19:56N 43°34' W 005°42'0 0.0
2017-Oct-12 19:26N 43°34' W 005°42'0 0.0
2017-Oct-12 18:56N 43°34' W 005°42'0 0.0
2017-Oct-12 18:26N 43°34' W 005°42'0 0.0
2017-Oct-12 17:56N 43°34' W 005°42'0 0.0
2017-Oct-12 17:26N 43°34' W 005°42'0 0.0
2017-Oct-12 13:44N 43°34' W 005°42'0 0.0
2017-Oct-12 13:26N 43°34' W 005°42'0 0.0
2017-Oct-12 12:56N 43°34' W 005°42'0 0.0
2017-Oct-12 12:26N 43°34' W 005°42'0 0.0
2017-Oct-12 11:50N 43°34' W 005°42'0 0.0
2017-Oct-12 11:26N 43°34' W 005°42'0 0.0
2017-Oct-12 05:26N 43°34' W 005°42'0 0.0
2017-Oct-12 03:38N 43°34' W 005°42'0 0.0
2017-Oct-12 03:26N 43°34' W 005°42'0 0.0
2017-Oct-12 02:44N 43°34' W 005°42'0 0.0
2017-Oct-12 02:26N 43°34' W 005°42'0 0.0
2017-Oct-12 01:56N 43°34' W 005°42'0 0.0
2017-Oct-12 01:20N 43°34' W 005°42'0 0.0
2017-Oct-12 00:32N 43°34' W 005°42'0 0.0
2017-Oct-12 00:20N 43°34' W 005°42'0 0.0
2017-Oct-11 23:56N 43°34' W 005°42'0 0.0
2017-Oct-11 20:08N 43°34' W 005°42'0 0.0
2017-Oct-11 19:50N 43°34' W 005°42'0 0.0
2017-Oct-10 23:56N 43°34' W 005°42'0 0.0
2017-Oct-10 23:30N 43°34' W 005°42'0 0.0
2017-Oct-10 23:00N 43°34' W 005°42'0 0.1
2017-Oct-10 22:30N 43°34' W 005°42'2 4.0
2017-Oct-10 22:00N 43°35' W 005°40'510.0
2017-Oct-10 21:30N 43°40' W 005°39'510.9
2017-Oct-10 21:01N 43°45' W 005°37'4 7.1
2017-Oct-10 20:31N 43°49' W 005°36'510.0
2017-Oct-10 20:00N 43°46' W 005°41'510.0
2017-Oct-10 19:31N 43°45' W 005°48'5 9.8
2017-Oct-10 19:01N 43°42' W 005°54'510.6
2017-Oct-10 18:31N 43°38' W 005°57'  
2017-Oct-07 16:58N 43°35' W 005°55'3 6.7
2017-Oct-07 16:31N 43°36' W 005°59'4 8.0
2017-Oct-07 16:01N 43°38' W 006°05'4 8.5
2017-Oct-07 15:31N 43°39' W 006°10'4 7.9
2017-Oct-07 15:01N 43°39' W 006°16'4 7.7
2017-Oct-07 14:30N 43°40' W 006°21'4 7.6
2017-Oct-07 14:01N 43°41' W 006°26'4 7.7
2017-Oct-07 13:31N 43°42' W 006°31'4 7.6
2017-Oct-07 13:01N 43°42' W 006°36'4 7.6
2017-Oct-07 12:30N 43°43' W 006°42'4 7.4
2017-Oct-07 12:01N 43°44' W 006°47'4 7.4
2017-Oct-07 11:31N 43°45' W 006°52'4 7.9
2017-Oct-07 11:00N 43°46' W 006°57'5 8.0
2017-Oct-07 10:24N 43°47' W 007°04'3 7.8
2017-Oct-07 09:59N 43°47' W 007°08'4 7.6
2017-Oct-07 09:29N 43°48' W 007°13'4 7.3
2017-Oct-07 08:54N 43°49' W 007°19'15 7.1
2017-Oct-07 06:44N 43°52' W 007°40'7 6.6
2017-Oct-07 05:41N 43°54' W 007°49'41 6.8
2017-Oct-06 23:42N 43°38' W 008°42'5 6.2
2017-Oct-06 22:54N 43°36' W 008°48'6 5.9
2017-Oct-06 21:58N 43°34' W 008°55'12 5.8
2017-Oct-06 19:56N 43°29' W 009°10'2 5.5
2017-Oct-06 19:30N 43°29' W 009°13'3 5.4
2017-Oct-06 18:54N 43°27' W 009°17'  

Dump ship's entire track history